createdAt,value
2019-05-25T00:00:38.607Z,15.00
2019-05-25T00:01:45.444Z,15.00
2019-05-25T00:02:51.809Z,15.00
2019-05-25T00:03:58.761Z,14.90
2019-05-25T00:05:05.164Z,15.00
2019-05-25T00:06:12.185Z,15.00
2019-05-25T00:07:18.508Z,15.00
2019-05-25T00:08:26.696Z,14.90
2019-05-25T00:09:32.862Z,14.80
2019-05-25T00:10:39.795Z,14.90
2019-05-25T00:11:46.076Z,14.90
2019-05-25T00:12:52.894Z,14.90
2019-05-25T00:13:59.333Z,14.90
2019-05-25T00:15:06.620Z,14.80
2019-05-25T00:16:12.886Z,14.80
2019-05-25T00:17:19.835Z,14.80
2019-05-25T00:18:26.299Z,14.80
2019-05-25T00:19:33.125Z,14.80
2019-05-25T00:20:39.467Z,14.70
2019-05-25T00:21:46.412Z,14.70
2019-05-25T00:22:52.359Z,14.70
2019-05-25T00:24:11.634Z,14.70
2019-05-25T00:25:08.182Z,14.70
2019-05-25T00:26:15.133Z,14.70
2019-05-25T00:27:21.668Z,14.50
2019-05-25T00:28:28.446Z,14.40
2019-05-25T00:29:34.780Z,14.40
2019-05-25T00:30:41.804Z,14.40
2019-05-25T00:31:48.206Z,14.40
2019-05-25T00:32:55.167Z,14.30
2019-05-25T00:34:01.464Z,14.30
2019-05-25T00:35:08.349Z,14.30
2019-05-25T00:36:14.747Z,14.30
2019-05-25T00:37:21.744Z,14.40
2019-05-25T00:38:28.204Z,14.30
2019-05-25T00:39:34.970Z,14.30
2019-05-25T00:40:41.355Z,14.20
2019-05-25T00:41:48.424Z,14.10
2019-05-25T00:42:54.766Z,14.10
2019-05-25T00:44:01.619Z,14.00
2019-05-25T00:45:08.012Z,14.10
2019-05-25T00:46:14.955Z,14.10
2019-05-25T00:47:21.376Z,14.10
2019-05-25T00:48:28.254Z,14.00
2019-05-25T00:49:34.803Z,13.90
2019-05-25T00:50:41.588Z,13.90
2019-05-25T00:51:47.976Z,14.00
2019-05-25T00:52:54.997Z,13.90
2019-05-25T00:54:01.252Z,13.90
2019-05-25T00:55:08.755Z,13.90
2019-05-25T00:56:15.103Z,13.80
2019-05-25T00:57:21.750Z,13.70
2019-05-25T00:58:27.758Z,13.70
2019-05-25T00:59:34.511Z,13.70
2019-05-25T01:00:41.009Z,13.70
2019-05-25T01:01:47.835Z,13.70
2019-05-25T01:02:54.054Z,13.70
2019-05-25T01:04:00.978Z,13.70
2019-05-25T01:05:07.232Z,13.60
2019-05-25T01:06:14.042Z,13.60
2019-05-25T01:07:20.415Z,13.60
2019-05-25T01:08:27.485Z,13.50
2019-05-25T01:09:33.701Z,13.50
2019-05-25T01:10:40.554Z,13.50
2019-05-25T01:11:46.839Z,13.60
2019-05-25T01:12:53.700Z,13.40
2019-05-25T01:14:00.075Z,13.40
2019-05-25T01:15:08.854Z,13.30
2019-05-25T01:16:15.095Z,13.30
2019-05-25T01:17:22.107Z,13.30
2019-05-25T01:18:28.375Z,13.20
2019-05-25T01:19:35.185Z,13.20
2019-05-25T01:20:41.676Z,13.30
2019-05-25T01:21:48.445Z,13.30
2019-05-25T01:22:54.866Z,13.30
2019-05-25T01:24:01.875Z,13.10
2019-05-25T01:25:09.675Z,13.20
2019-05-25T01:26:16.674Z,13.20
2019-05-25T01:27:22.916Z,13.20
2019-05-25T01:28:29.819Z,13.10
2019-05-25T01:29:36.231Z,13.10
2019-05-25T01:30:43.075Z,13.20
2019-05-25T01:31:49.630Z,13.10
2019-05-25T01:32:56.145Z,13.20
2019-05-25T01:34:02.522Z,13.10
2019-05-25T01:35:09.635Z,13.10
2019-05-25T01:36:15.987Z,13.10
2019-05-25T01:37:22.816Z,13.10
2019-05-25T01:38:30.187Z,13.10
2019-05-25T01:39:37.083Z,13.10
2019-05-25T01:40:43.379Z,13.10
2019-05-25T01:41:50.195Z,13.00
2019-05-25T01:42:56.554Z,13.00
2019-05-25T01:44:03.357Z,12.90
2019-05-25T01:45:09.946Z,13.00
2019-05-25T01:46:16.808Z,12.90
2019-05-25T01:47:22.940Z,12.90
2019-05-25T01:48:29.947Z,13.00
2019-05-25T01:49:36.245Z,12.90
2019-05-25T01:50:43.495Z,12.80
2019-05-25T01:51:49.817Z,12.70
2019-05-25T01:52:56.703Z,12.80
2019-05-25T01:54:03.034Z,12.80
2019-05-25T01:55:10.147Z,12.90
2019-05-25T01:56:16.392Z,12.80
2019-05-25T01:57:23.297Z,12.80
2019-05-25T01:58:29.596Z,12.90
2019-05-25T01:59:36.605Z,12.80
2019-05-25T02:00:43.054Z,12.80
2019-05-25T02:01:49.923Z,12.70
2019-05-25T02:02:56.343Z,12.60
2019-05-25T02:04:03.252Z,12.60
2019-05-25T02:05:10.074Z,12.60
2019-05-25T02:06:16.977Z,12.60
2019-05-25T02:07:23.216Z,12.60
2019-05-25T02:08:29.954Z,12.60
2019-05-25T02:09:36.403Z,12.70
2019-05-25T02:10:43.392Z,12.60
2019-05-25T02:11:49.705Z,12.50
2019-05-25T02:12:56.686Z,12.50
2019-05-25T02:14:03.089Z,12.50
2019-05-25T02:15:11.533Z,12.60
2019-05-25T02:16:17.846Z,12.60
2019-05-25T02:17:24.693Z,12.50
2019-05-25T02:18:30.987Z,12.50
2019-05-25T02:19:37.967Z,12.40
2019-05-25T02:20:43.845Z,12.40
2019-05-25T02:21:53.595Z,12.40
2019-05-25T02:22:59.934Z,12.50
2019-05-25T02:24:06.965Z,12.40
2019-05-25T02:25:18.313Z,12.50
2019-05-25T02:26:22.549Z,12.40
2019-05-25T02:27:28.984Z,12.40
2019-05-25T02:28:35.886Z,12.40
2019-05-25T02:29:42.287Z,12.40
2019-05-25T02:30:49.218Z,12.30
2019-05-25T02:31:55.329Z,12.30
2019-05-25T02:33:02.087Z,12.30
2019-05-25T02:34:08.571Z,12.30
2019-05-25T02:35:25.377Z,12.20
2019-05-25T02:36:31.869Z,12.20
2019-05-25T02:37:38.826Z,12.20
2019-05-25T02:38:45.275Z,12.30
2019-05-25T02:39:52.257Z,12.20
2019-05-25T02:40:58.646Z,12.20
2019-05-25T02:42:05.615Z,12.30
2019-05-25T02:43:11.942Z,12.30
2019-05-25T02:44:18.914Z,12.20
2019-05-25T02:45:25.378Z,12.20
2019-05-25T02:46:32.118Z,12.20
2019-05-25T02:47:38.508Z,12.20
2019-05-25T02:48:45.323Z,12.10
2019-05-25T02:49:51.816Z,12.20
2019-05-25T02:50:58.766Z,12.20
2019-05-25T02:52:05.224Z,12.10
2019-05-25T02:53:12.193Z,12.20
2019-05-25T02:54:18.397Z,12.20
2019-05-25T02:55:34.551Z,12.20
2019-05-25T02:56:33.555Z,12.10
2019-05-25T02:57:40.461Z,12.00
2019-05-25T02:58:46.666Z,12.00
2019-05-25T02:59:53.574Z,12.00
2019-05-25T03:01:00.135Z,12.00
2019-05-25T03:02:07.073Z,11.90
2019-05-25T03:03:13.727Z,11.90
2019-05-25T03:04:20.796Z,11.90
2019-05-25T03:05:26.708Z,11.90
2019-05-25T03:06:35.044Z,11.90
2019-05-25T03:07:41.936Z,11.90
2019-05-25T03:08:49.967Z,12.00
2019-05-25T03:09:57.447Z,11.90
2019-05-25T03:11:04.556Z,11.80
2019-05-25T03:12:11.173Z,11.80
2019-05-25T03:13:19.103Z,11.80
2019-05-25T03:14:25.456Z,11.80
2019-05-25T03:15:32.395Z,11.90
2019-05-25T03:16:38.526Z,11.80
2019-05-25T03:17:45.125Z,11.80
2019-05-25T03:18:51.496Z,11.80
2019-05-25T03:19:58.416Z,11.90
2019-05-25T03:21:04.827Z,11.80
2019-05-25T03:22:11.575Z,11.90
2019-05-25T03:23:17.802Z,11.80
2019-05-25T03:24:24.698Z,11.90
2019-05-25T03:25:31.190Z,11.90
2019-05-25T03:26:38.228Z,11.90
2019-05-25T03:27:44.632Z,11.80
2019-05-25T03:28:51.443Z,11.80
2019-05-25T03:29:57.615Z,11.80
2019-05-25T03:31:04.480Z,11.80
2019-05-25T03:32:11.065Z,11.80
2019-05-25T03:33:18.191Z,11.80
2019-05-25T03:34:24.532Z,11.90
2019-05-25T03:35:31.516Z,11.80
2019-05-25T03:36:37.881Z,11.80
2019-05-25T03:37:45.014Z,11.80
2019-05-25T03:38:51.272Z,11.90
2019-05-25T03:39:58.092Z,11.90
2019-05-25T03:41:04.037Z,11.80
2019-05-25T03:42:10.819Z,11.90
2019-05-25T03:43:17.193Z,12.00
2019-05-25T03:44:24.144Z,11.90
2019-05-25T03:45:30.657Z,11.90
2019-05-25T03:46:37.455Z,11.90
2019-05-25T03:47:43.822Z,11.80
2019-05-25T03:48:50.794Z,11.80
2019-05-25T03:49:57.256Z,11.80
2019-05-25T03:51:04.267Z,11.90
2019-05-25T03:52:10.339Z,11.90
2019-05-25T03:53:18.161Z,11.90
2019-05-25T03:54:24.532Z,11.80
2019-05-25T03:55:31.498Z,11.90
2019-05-25T03:56:37.823Z,12.00
2019-05-25T03:57:45.292Z,12.00
2019-05-25T03:58:51.695Z,12.10
2019-05-25T03:59:58.646Z,12.10
2019-05-25T04:01:05.107Z,12.10
2019-05-25T04:02:12.037Z,12.10
2019-05-25T04:03:18.440Z,12.00
2019-05-25T04:04:25.495Z,11.90
2019-05-25T04:05:31.683Z,12.00
2019-05-25T04:06:38.604Z,12.10
2019-05-25T04:07:44.796Z,12.10
2019-05-25T04:08:51.762Z,12.10
2019-05-25T04:09:58.127Z,12.20
2019-05-25T04:11:06.147Z,12.20
2019-05-25T04:12:14.050Z,12.10
2019-05-25T04:13:23.784Z,12.20
2019-05-25T04:14:30.242Z,12.20
2019-05-25T04:15:37.300Z,12.20
2019-05-25T04:16:44.474Z,12.30
2019-05-25T04:17:51.616Z,12.30
2019-05-25T04:18:58.172Z,12.30
2019-05-25T04:20:06.024Z,12.40
2019-05-25T04:21:12.202Z,12.30
2019-05-25T04:22:19.941Z,12.30
2019-05-25T04:23:27.759Z,12.30
2019-05-25T04:24:35.099Z,12.30
2019-05-25T04:25:41.562Z,12.40
2019-05-25T04:26:48.321Z,12.40
2019-05-25T04:27:54.734Z,12.30
2019-05-25T04:29:01.914Z,12.40
2019-05-25T04:30:09.096Z,12.40
2019-05-25T04:31:16.050Z,12.40
2019-05-25T04:32:22.455Z,12.50
2019-05-25T04:33:50.708Z,12.50
2019-05-25T04:34:56.769Z,12.60
2019-05-25T04:36:03.863Z,12.70
2019-05-25T04:37:10.103Z,12.70
2019-05-25T04:38:16.874Z,12.70
2019-05-25T04:39:23.589Z,12.80
2019-05-25T04:40:30.497Z,12.80
2019-05-25T04:41:36.838Z,12.80
2019-05-25T04:42:43.704Z,12.80
2019-05-25T04:43:50.020Z,12.80
2019-05-25T04:44:56.977Z,12.90
2019-05-25T04:46:03.430Z,13.00
2019-05-25T04:47:24.340Z,13.00
2019-05-25T04:48:18.066Z,13.10
2019-05-25T04:49:25.391Z,13.10
2019-05-25T04:50:31.825Z,13.10
2019-05-25T04:51:38.665Z,13.20
2019-05-25T04:52:48.468Z,13.30
2019-05-25T04:53:55.406Z,13.20
2019-05-25T04:55:01.979Z,13.30
2019-05-25T04:56:09.400Z,13.30
2019-05-25T04:57:16.929Z,13.30
2019-05-25T04:58:24.143Z,13.40
2019-05-25T04:59:30.548Z,13.40
2019-05-25T05:00:37.278Z,13.40
2019-05-25T05:01:43.584Z,13.40
2019-05-25T05:02:50.436Z,13.40
2019-05-25T05:03:56.629Z,13.50
2019-05-25T05:05:03.553Z,13.50
2019-05-25T05:06:09.765Z,13.60
2019-05-25T05:07:16.540Z,13.70
2019-05-25T05:08:22.978Z,13.70
2019-05-25T05:09:29.489Z,13.70
2019-05-25T05:10:35.674Z,13.70
2019-05-25T05:11:42.635Z,13.80
2019-05-25T05:12:48.884Z,13.80
2019-05-25T05:13:55.828Z,13.80
2019-05-25T05:15:02.338Z,13.80
2019-05-25T05:16:09.277Z,13.90
2019-05-25T05:17:15.449Z,13.90
2019-05-25T05:18:22.192Z,13.90
2019-05-25T05:19:28.222Z,14.00
2019-05-25T05:20:34.985Z,14.00
2019-05-25T05:21:40.929Z,14.00
2019-05-25T05:22:47.739Z,14.00
2019-05-25T05:23:55.044Z,14.10
2019-05-25T05:25:01.992Z,14.10
2019-05-25T05:26:08.294Z,14.10
2019-05-25T05:27:15.073Z,14.20
2019-05-25T05:28:21.509Z,14.20
2019-05-25T05:29:28.301Z,14.30
2019-05-25T05:30:36.004Z,14.30
2019-05-25T05:31:42.935Z,14.30
2019-05-25T05:32:49.237Z,14.30
2019-05-25T05:33:55.939Z,14.40
2019-05-25T05:35:02.311Z,14.40
2019-05-25T05:36:10.669Z,14.50
2019-05-25T05:37:17.375Z,14.50
2019-05-25T05:38:25.283Z,14.50
2019-05-25T05:39:32.037Z,14.60
2019-05-25T05:40:39.529Z,14.60
2019-05-25T05:41:48.501Z,14.60
2019-05-25T05:42:58.069Z,14.70
2019-05-25T05:44:06.535Z,14.70
2019-05-25T05:45:13.346Z,14.70
2019-05-25T05:46:21.748Z,14.80
2019-05-25T05:47:29.810Z,14.80
2019-05-25T05:48:38.505Z,14.80
2019-05-25T05:49:46.241Z,14.80
2019-05-25T05:50:54.640Z,14.90
2019-05-25T05:52:04.335Z,15.00
2019-05-25T05:53:10.512Z,15.00
2019-05-25T05:54:18.173Z,15.00
2019-05-25T05:55:31.538Z,15.10
2019-05-25T05:56:39.548Z,15.10
2019-05-25T05:57:45.943Z,15.10
2019-05-25T05:58:52.865Z,15.20
2019-05-25T05:59:59.235Z,15.30
2019-05-25T06:01:06.287Z,15.30
2019-05-25T06:02:12.691Z,15.30
2019-05-25T06:03:19.756Z,15.40
2019-05-25T06:04:25.744Z,15.40
2019-05-25T06:05:32.663Z,15.40
2019-05-25T06:06:39.038Z,15.40
2019-05-25T06:07:45.936Z,15.50
2019-05-25T06:08:52.116Z,15.50
2019-05-25T06:09:58.997Z,15.60
2019-05-25T06:11:05.563Z,15.60
2019-05-25T06:12:12.514Z,15.60
2019-05-25T06:13:18.922Z,15.70
2019-05-25T06:14:25.927Z,15.70
2019-05-25T06:15:32.230Z,15.70
2019-05-25T06:16:39.254Z,15.70
2019-05-25T06:17:45.804Z,15.80
2019-05-25T06:18:52.632Z,15.80
2019-05-25T06:19:58.892Z,15.80
2019-05-25T06:21:05.686Z,15.80
2019-05-25T06:22:12.187Z,15.90
2019-05-25T06:23:20.154Z,15.90
2019-05-25T06:24:26.535Z,15.90
2019-05-25T06:25:33.489Z,15.90
2019-05-25T06:26:39.887Z,15.90
2019-05-25T06:27:46.655Z,16.00
2019-05-25T06:28:53.045Z,16.00
2019-05-25T06:30:00.026Z,16.10
2019-05-25T06:31:06.374Z,16.10
2019-05-25T06:32:13.178Z,16.20
2019-05-25T06:33:19.501Z,16.20
2019-05-25T06:34:26.475Z,16.30
2019-05-25T06:35:32.782Z,16.30
2019-05-25T06:36:39.670Z,16.30
2019-05-25T06:37:45.963Z,16.30
2019-05-25T06:38:52.979Z,16.40
2019-05-25T06:39:58.990Z,16.40
2019-05-25T06:41:08.617Z,16.40
2019-05-25T06:42:13.794Z,16.40
2019-05-25T06:43:20.799Z,16.50
2019-05-25T06:44:27.104Z,16.60
2019-05-25T06:45:34.035Z,16.60
2019-05-25T06:46:40.205Z,16.70
2019-05-25T06:47:48.113Z,16.70
2019-05-25T06:48:54.616Z,16.70
2019-05-25T06:50:01.536Z,16.80
2019-05-25T06:51:07.706Z,16.80
2019-05-25T06:52:14.648Z,16.80
2019-05-25T06:53:21.009Z,16.90
2019-05-25T06:54:27.859Z,16.90
2019-05-25T06:55:34.370Z,16.90
2019-05-25T06:56:41.466Z,16.90
2019-05-25T06:57:47.775Z,16.90
2019-05-25T06:58:55.744Z,17.00
2019-05-25T07:00:02.273Z,17.00
2019-05-25T07:01:09.238Z,17.10
2019-05-25T07:02:15.640Z,17.10
2019-05-25T07:03:22.555Z,17.10
2019-05-25T07:04:28.896Z,17.20
2019-05-25T07:05:35.777Z,17.20
2019-05-25T07:06:42.116Z,17.20
2019-05-25T07:07:49.219Z,17.20
2019-05-25T07:08:55.635Z,17.30
2019-05-25T07:10:02.560Z,17.30
2019-05-25T07:11:08.776Z,17.30
2019-05-25T07:12:15.735Z,17.30
2019-05-25T07:13:21.919Z,17.30
2019-05-25T07:14:28.804Z,17.40
2019-05-25T07:15:34.835Z,17.40
2019-05-25T07:16:41.547Z,17.40
2019-05-25T07:17:47.840Z,17.50
2019-05-25T07:18:54.587Z,17.50
2019-05-25T07:20:01.989Z,17.60
2019-05-25T07:21:08.800Z,17.60
2019-05-25T07:22:14.981Z,17.60
2019-05-25T07:23:22.081Z,17.60
2019-05-25T07:24:28.391Z,17.60
2019-05-25T07:25:35.124Z,17.70
2019-05-25T07:26:41.466Z,17.80
2019-05-25T07:27:58.886Z,17.80
2019-05-25T07:28:57.048Z,17.80
2019-05-25T07:30:03.963Z,17.90
2019-05-25T07:31:10.361Z,18.00
2019-05-25T07:32:17.126Z,18.00
2019-05-25T07:33:23.336Z,18.00
2019-05-25T07:34:30.347Z,18.10
2019-05-25T07:35:36.611Z,18.20
2019-05-25T07:36:43.617Z,18.20
2019-05-25T07:37:49.832Z,18.30
2019-05-25T07:38:56.358Z,18.30
2019-05-25T07:40:02.463Z,18.40
2019-05-25T07:41:09.618Z,18.40
2019-05-25T07:42:15.725Z,18.40
2019-05-25T07:43:22.482Z,18.50
2019-05-25T07:44:28.737Z,18.50
2019-05-25T07:45:35.585Z,18.50
2019-05-25T07:46:41.740Z,18.50
2019-05-25T07:47:48.575Z,18.60
2019-05-25T07:48:54.856Z,18.60
2019-05-25T07:50:02.184Z,18.60
2019-05-25T07:51:08.228Z,18.60
2019-05-25T07:52:14.892Z,18.80
2019-05-25T07:53:21.150Z,18.80
2019-05-25T07:54:27.967Z,18.80
2019-05-25T07:55:34.335Z,18.80
2019-05-25T07:56:41.329Z,18.90
2019-05-25T07:57:47.646Z,18.90
2019-05-25T07:58:54.727Z,18.90
2019-05-25T08:00:01.268Z,18.90
2019-05-25T08:01:08.502Z,19.00
2019-05-25T08:02:14.869Z,18.90
2019-05-25T08:03:21.435Z,19.00
2019-05-25T08:04:27.688Z,19.10
2019-05-25T08:05:34.661Z,19.10
2019-05-25T08:06:40.948Z,19.20
2019-05-25T08:07:47.917Z,19.20
2019-05-25T08:08:54.273Z,19.20
2019-05-25T08:10:01.247Z,19.20
2019-05-25T08:11:07.645Z,19.30
2019-05-25T08:12:14.625Z,19.40
2019-05-25T08:13:20.935Z,19.40
2019-05-25T08:14:28.042Z,19.40
2019-05-25T08:15:34.004Z,19.40
2019-05-25T08:16:40.895Z,19.50
2019-05-25T08:17:48.302Z,19.50
2019-05-25T08:18:55.272Z,19.60
2019-05-25T08:20:01.624Z,19.60
2019-05-25T08:21:08.540Z,19.60
2019-05-25T08:22:14.750Z,19.70
2019-05-25T08:23:21.572Z,19.80
2019-05-25T08:24:28.006Z,19.80
2019-05-25T08:25:34.992Z,19.80
2019-05-25T08:26:41.455Z,19.80
2019-05-25T08:27:48.368Z,19.90
2019-05-25T08:28:54.724Z,19.90
2019-05-25T08:30:01.603Z,20.00
2019-05-25T08:31:07.859Z,20.00
2019-05-25T08:32:14.737Z,20.00
2019-05-25T08:33:20.976Z,20.00
2019-05-25T08:34:27.946Z,20.00
2019-05-25T08:35:34.346Z,20.10
2019-05-25T08:36:41.235Z,20.20
2019-05-25T08:37:47.709Z,20.20
2019-05-25T08:38:55.005Z,20.20
2019-05-25T08:40:01.438Z,20.30
2019-05-25T08:41:08.445Z,20.40
2019-05-25T08:42:14.646Z,20.40
2019-05-25T08:43:21.469Z,20.40
2019-05-25T08:44:27.777Z,20.40
2019-05-25T08:45:34.731Z,20.40
2019-05-25T08:46:41.324Z,20.40
2019-05-25T08:47:48.255Z,20.30
2019-05-25T08:48:54.525Z,20.40
2019-05-25T08:50:01.398Z,20.60
2019-05-25T08:51:07.372Z,20.60
2019-05-25T08:52:14.425Z,20.60
2019-05-25T08:53:31.212Z,20.70
2019-05-25T08:54:29.136Z,20.70
2019-05-25T08:55:35.434Z,20.80
2019-05-25T08:56:42.372Z,20.80
2019-05-25T08:57:48.735Z,20.80
2019-05-25T08:58:55.806Z,20.80
2019-05-25T09:00:02.007Z,20.80
2019-05-25T09:01:09.135Z,20.80
2019-05-25T09:02:15.366Z,20.80
2019-05-25T09:03:23.292Z,20.80
2019-05-25T09:04:29.675Z,20.90
2019-05-25T09:05:37.014Z,21.00
2019-05-25T09:06:43.414Z,21.00
2019-05-25T09:07:50.326Z,21.10
2019-05-25T09:08:56.563Z,21.20
2019-05-25T09:10:03.355Z,21.20
2019-05-25T09:11:09.765Z,21.30
2019-05-25T09:12:17.826Z,21.30
2019-05-25T09:13:24.110Z,21.30
2019-05-25T09:14:30.978Z,21.30
2019-05-25T09:15:37.054Z,21.30
2019-05-25T09:16:43.954Z,21.30
2019-05-25T09:17:50.322Z,21.30
2019-05-25T09:18:57.168Z,21.30
2019-05-25T09:20:03.694Z,21.30
2019-05-25T09:21:10.614Z,21.30
2019-05-25T09:22:16.794Z,21.20
2019-05-25T09:23:23.734Z,21.20
2019-05-25T09:24:30.109Z,21.30
2019-05-25T09:25:37.131Z,21.30
2019-05-25T09:26:43.165Z,21.40
2019-05-25T09:27:50.094Z,21.40
2019-05-25T09:29:04.531Z,21.40
2019-05-25T09:30:05.634Z,21.40
2019-05-25T09:31:11.902Z,21.40
2019-05-25T09:32:18.741Z,21.40
2019-05-25T09:33:26.178Z,21.40
2019-05-25T09:34:33.136Z,21.50
2019-05-25T09:35:39.521Z,21.50
2019-05-25T09:36:46.365Z,21.60
2019-05-25T09:37:52.328Z,21.60
2019-05-25T09:38:58.859Z,21.60
2019-05-25T09:40:05.732Z,21.60
2019-05-25T09:41:12.725Z,21.60
2019-05-25T09:42:19.090Z,21.70
2019-05-25T09:43:25.976Z,21.70
2019-05-25T09:44:32.480Z,21.80
2019-05-25T09:45:39.453Z,21.80
2019-05-25T09:46:45.658Z,21.80
2019-05-25T09:47:52.522Z,21.80
2019-05-25T09:48:58.736Z,21.80
2019-05-25T09:50:05.687Z,21.90
2019-05-25T09:51:15.766Z,21.90
2019-05-25T09:52:20.532Z,21.90
2019-05-25T09:53:26.895Z,22.00
2019-05-25T09:54:33.757Z,22.20
2019-05-25T09:55:40.117Z,22.20
2019-05-25T09:56:47.181Z,22.20
2019-05-25T09:57:53.676Z,22.30
2019-05-25T09:59:00.655Z,22.40
2019-05-25T10:00:08.945Z,22.40
2019-05-25T10:01:16.721Z,22.40
2019-05-25T10:02:22.910Z,22.40
2019-05-25T10:03:29.713Z,22.30
2019-05-25T10:04:36.160Z,22.40
2019-05-25T10:05:42.976Z,22.30
2019-05-25T10:06:49.299Z,22.30
2019-05-25T10:07:56.360Z,22.30
2019-05-25T10:09:02.852Z,22.40
2019-05-25T10:10:12.338Z,22.50
2019-05-25T10:11:18.722Z,22.60
2019-05-25T10:12:25.592Z,22.60
2019-05-25T10:13:31.953Z,22.70
2019-05-25T10:14:38.896Z,22.70
2019-05-25T10:15:45.153Z,22.70
2019-05-25T10:16:53.098Z,22.70
2019-05-25T10:17:59.511Z,22.80
2019-05-25T10:19:06.486Z,22.70
2019-05-25T10:20:14.342Z,22.60
2019-05-25T10:21:21.167Z,22.70
2019-05-25T10:22:27.496Z,22.70
2019-05-25T10:23:34.482Z,22.70
2019-05-25T10:24:40.857Z,22.80
2019-05-25T10:25:47.871Z,22.80
2019-05-25T10:26:54.344Z,22.80
2019-05-25T10:28:01.363Z,22.90
2019-05-25T10:29:07.715Z,23.10
2019-05-25T10:30:14.935Z,23.30
2019-05-25T10:31:21.149Z,23.40
2019-05-25T10:32:28.016Z,23.50
2019-05-25T10:33:35.286Z,23.70
2019-05-25T10:34:42.114Z,23.80
2019-05-25T10:35:48.156Z,24.00
2019-05-25T10:36:54.967Z,24.20
2019-05-25T10:38:01.143Z,24.40
2019-05-25T10:39:09.998Z,24.80
2019-05-25T10:40:16.350Z,25.70
2019-05-25T10:41:23.171Z,25.20
2019-05-25T10:42:29.386Z,24.40
2019-05-25T10:43:37.507Z,24.50
2019-05-25T10:44:43.743Z,26.00
2019-05-25T10:45:50.713Z,27.00
2019-05-25T10:46:57.011Z,28.00
2019-05-25T10:48:04.508Z,28.80
2019-05-25T10:49:11.830Z,29.60
2019-05-25T10:50:19.328Z,30.20
2019-05-25T10:51:25.942Z,30.60
2019-05-25T10:52:32.730Z,31.00
2019-05-25T10:53:38.991Z,31.60
2019-05-25T10:54:45.982Z,31.80
2019-05-25T10:55:52.375Z,31.90
2019-05-25T10:56:59.269Z,32.20
2019-05-25T10:58:06.044Z,32.10
2019-05-25T10:59:12.821Z,32.20
2019-05-25T11:00:19.376Z,32.30
2019-05-25T11:01:26.392Z,32.90
2019-05-25T11:02:32.868Z,33.00
2019-05-25T11:03:39.811Z,33.70
2019-05-25T11:04:46.195Z,33.70
2019-05-25T11:05:53.137Z,34.00
2019-05-25T11:06:59.358Z,34.10
2019-05-25T11:08:06.366Z,34.40
2019-05-25T11:09:12.835Z,34.30
2019-05-25T11:10:20.173Z,34.20
2019-05-25T11:11:26.193Z,34.60
2019-05-25T11:12:33.168Z,34.90
2019-05-25T11:13:39.557Z,34.90
2019-05-25T11:14:46.499Z,35.00
2019-05-25T11:15:52.987Z,35.10
2019-05-25T11:16:59.963Z,33.80
2019-05-25T11:18:06.279Z,34.40
2019-05-25T11:19:13.294Z,35.00
2019-05-25T11:20:19.797Z,35.10
2019-05-25T11:21:26.656Z,34.30
2019-05-25T11:22:33.125Z,33.10
2019-05-25T11:23:40.102Z,32.50
2019-05-25T11:24:46.408Z,32.50
2019-05-25T11:25:53.231Z,33.20
2019-05-25T11:26:59.798Z,33.70
2019-05-25T11:28:08.411Z,33.60
2019-05-25T11:29:14.706Z,33.90
2019-05-25T11:30:23.433Z,34.80
2019-05-25T11:31:29.919Z,35.60
2019-05-25T11:32:36.881Z,36.20
2019-05-25T11:33:43.257Z,36.60
2019-05-25T11:34:49.899Z,36.50
2019-05-25T11:35:56.163Z,35.70
2019-05-25T11:37:03.012Z,36.00
2019-05-25T11:38:09.223Z,36.20
2019-05-25T11:39:16.128Z,36.50
2019-05-25T11:40:23.634Z,36.40
2019-05-25T11:41:30.461Z,35.20
2019-05-25T11:42:36.679Z,33.60
2019-05-25T11:43:43.636Z,32.00
2019-05-25T11:44:50.087Z,32.00
2019-05-25T11:45:57.136Z,33.10
2019-05-25T11:47:03.332Z,32.10
2019-05-25T11:48:10.225Z,31.20
2019-05-25T11:49:22.486Z,31.40
2019-05-25T11:50:25.479Z,32.40
2019-05-25T11:51:31.755Z,33.70
2019-05-25T11:52:38.947Z,34.00
2019-05-25T11:53:45.703Z,33.90
2019-05-25T11:54:52.536Z,34.90
2019-05-25T11:55:58.863Z,34.90
2019-05-25T11:57:05.944Z,35.60
2019-05-25T11:58:12.302Z,36.10
2019-05-25T11:59:18.855Z,35.90
2019-05-25T12:00:26.194Z,36.60
2019-05-25T12:01:33.119Z,35.50
2019-05-25T12:02:39.516Z,33.20
2019-05-25T12:03:46.346Z,31.60
2019-05-25T12:04:52.667Z,30.80
2019-05-25T12:05:59.819Z,30.20
2019-05-25T12:07:06.376Z,31.70
2019-05-25T12:08:13.155Z,33.00
2019-05-25T12:09:19.429Z,34.10
2019-05-25T12:10:26.039Z,34.80
2019-05-25T12:11:32.302Z,35.60
2019-05-25T12:12:39.154Z,35.80
2019-05-25T12:13:45.510Z,35.50
2019-05-25T12:14:52.435Z,33.80
2019-05-25T12:15:58.764Z,33.20
2019-05-25T12:17:05.713Z,31.60
2019-05-25T12:18:12.142Z,31.20
2019-05-25T12:19:19.170Z,32.10
2019-05-25T12:20:25.571Z,33.50
2019-05-25T12:21:32.315Z,34.40
2019-05-25T12:22:38.312Z,33.70
2019-05-25T12:23:45.160Z,32.30
2019-05-25T12:24:51.533Z,30.10
2019-05-25T12:25:58.652Z,29.90
2019-05-25T12:27:05.182Z,31.00
2019-05-25T12:28:12.074Z,30.10
2019-05-25T12:29:18.468Z,29.20
2019-05-25T12:30:39.827Z,28.80
2019-05-25T12:31:33.312Z,28.60
2019-05-25T12:32:40.267Z,28.30
2019-05-25T12:33:46.136Z,27.60
2019-05-25T12:34:53.165Z,27.00
2019-05-25T12:35:59.343Z,26.70
2019-05-25T12:37:06.424Z,27.30
2019-05-25T12:38:13.043Z,29.30
2019-05-25T12:39:19.795Z,30.90
2019-05-25T12:40:26.357Z,31.70
2019-05-25T12:41:33.267Z,31.60
2019-05-25T12:42:39.432Z,31.30
2019-05-25T12:43:46.385Z,30.00
2019-05-25T12:44:53.843Z,30.60
2019-05-25T12:46:00.444Z,30.80
2019-05-25T12:47:07.062Z,30.20
2019-05-25T12:48:13.969Z,29.90
2019-05-25T12:49:20.412Z,30.10
2019-05-25T12:50:27.268Z,30.10
2019-05-25T12:51:33.686Z,31.30
2019-05-25T12:52:40.574Z,32.50
2019-05-25T12:53:47.008Z,33.60
2019-05-25T12:54:54.087Z,34.10
2019-05-25T12:56:00.510Z,33.20
2019-05-25T12:57:07.370Z,32.40
2019-05-25T12:58:13.733Z,32.90
2019-05-25T12:59:20.656Z,33.40
2019-05-25T13:00:27.175Z,33.40
2019-05-25T13:01:34.281Z,34.00
2019-05-25T13:02:40.749Z,34.60
2019-05-25T13:03:47.622Z,33.10
2019-05-25T13:04:53.909Z,31.60
2019-05-25T13:06:00.829Z,30.30
2019-05-25T13:07:08.034Z,29.40
2019-05-25T13:08:15.048Z,29.10
2019-05-25T13:09:21.071Z,28.90
2019-05-25T13:10:27.869Z,28.90
2019-05-25T13:11:34.351Z,28.80
2019-05-25T13:12:41.214Z,28.90
2019-05-25T13:13:47.643Z,29.20
2019-05-25T13:14:54.548Z,29.80
2019-05-25T13:16:00.745Z,29.50
2019-05-25T13:17:07.581Z,29.50
2019-05-25T13:18:14.189Z,29.00
2019-05-25T13:19:21.161Z,27.80
2019-05-25T13:20:27.784Z,27.50
2019-05-25T13:21:36.123Z,27.50
2019-05-25T13:22:42.333Z,27.20
2019-05-25T13:23:51.593Z,26.90
2019-05-25T13:24:58.176Z,26.90
2019-05-25T13:26:08.478Z,26.90
2019-05-25T13:27:15.519Z,26.80
2019-05-25T13:28:24.783Z,26.50
2019-05-25T13:29:32.001Z,26.40
2019-05-25T13:30:44.529Z,26.30
2019-05-25T13:31:52.110Z,26.30
2019-05-25T13:33:01.895Z,26.50
2019-05-25T13:34:10.725Z,26.60
2019-05-25T13:35:20.197Z,26.40
2019-05-25T13:36:30.573Z,26.10
2019-05-25T13:37:44.472Z,26.30
2019-05-25T13:38:55.036Z,26.60
2019-05-25T13:40:03.137Z,26.80
2019-05-25T13:41:12.203Z,27.10
2019-05-25T13:42:19.541Z,27.20
2019-05-25T13:43:26.128Z,26.90
2019-05-25T13:44:35.300Z,27.00
2019-05-25T13:45:45.944Z,26.80
2019-05-25T13:46:52.563Z,26.70
2019-05-25T13:48:01.476Z,26.50
2019-05-25T13:49:09.754Z,26.50
2019-05-25T13:50:17.450Z,26.70
2019-05-25T13:51:25.382Z,27.30
2019-05-25T13:52:32.811Z,27.40
2019-05-25T13:53:39.995Z,27.40
2019-05-25T13:54:46.609Z,26.50
2019-05-25T13:55:54.716Z,26.20
2019-05-25T13:57:05.591Z,26.20
2019-05-25T13:58:13.226Z,26.40
2019-05-25T13:59:20.243Z,26.70
2019-05-25T14:00:28.993Z,27.10
2019-05-25T14:01:35.868Z,27.80
2019-05-25T14:02:42.724Z,28.80
2019-05-25T14:03:49.017Z,29.40
2019-05-25T14:04:55.826Z,30.10
2019-05-25T14:06:02.037Z,30.50
2019-05-25T14:07:08.860Z,30.60
2019-05-25T14:08:15.145Z,30.30
2019-05-25T14:09:22.086Z,29.30
2019-05-25T14:10:28.784Z,28.70
2019-05-25T14:11:35.681Z,28.20
2019-05-25T14:12:41.890Z,28.30
2019-05-25T14:13:48.728Z,27.90
2019-05-25T14:14:55.115Z,27.40
2019-05-25T14:16:07.017Z,26.90
2019-05-25T14:17:10.030Z,26.50
2019-05-25T14:18:17.007Z,26.10
2019-05-25T14:19:23.434Z,26.10
2019-05-25T14:20:30.301Z,26.10
2019-05-25T14:21:36.606Z,26.50